sensor_id;sensor_type;location;lat;lon;timestamp;P1;durP1;ratioP1;P2;durP2;ratioP2
16979;SDS011;42288;52.182;21.156;2022-09-12T00:00:42;7.27;;;3.13;;
16979;SDS011;42288;52.182;21.156;2022-09-12T00:03:08;6.17;;;2.97;;
16979;SDS011;42288;52.182;21.156;2022-09-12T00:05:33;9.23;;;3.23;;
16979;SDS011;42288;52.182;21.156;2022-09-12T00:08:04;6.20;;;3.20;;
16979;SDS011;42288;52.182;21.156;2022-09-12T00:10:30;4.20;;;2.90;;
16979;SDS011;42288;52.182;21.156;2022-09-12T00:12:55;7.47;;;3.07;;
16979;SDS011;42288;52.182;21.156;2022-09-12T00:15:21;5.37;;;3.13;;
16979;SDS011;42288;52.182;21.156;2022-09-12T00:17:46;7.07;;;2.93;;
16979;SDS011;42288;52.182;21.156;2022-09-12T00:20:12;6.70;;;2.83;;
16979;SDS011;42288;52.182;21.156;2022-09-12T00:22:37;7.07;;;2.80;;
16979;SDS011;42288;52.182;21.156;2022-09-12T00:25:03;8.20;;;3.17;;
16979;SDS011;42288;52.182;21.156;2022-09-12T00:27:29;8.93;;;3.20;;
16979;SDS011;42288;52.182;21.156;2022-09-12T00:29:54;7.40;;;2.97;;
16979;SDS011;42288;52.182;21.156;2022-09-12T00:32:20;10.47;;;3.30;;
16979;SDS011;42288;52.182;21.156;2022-09-12T00:34:46;7.27;;;3.47;;
16979;SDS011;42288;52.182;21.156;2022-09-12T00:37:11;9.43;;;3.57;;
16979;SDS011;42288;52.182;21.156;2022-09-12T00:39:37;7.20;;;3.30;;
16979;SDS011;42288;52.182;21.156;2022-09-12T00:42:03;8.10;;;3.40;;
16979;SDS011;42288;52.182;21.156;2022-09-12T00:50:08;7.50;;;3.20;;
16979;SDS011;42288;52.182;21.156;2022-09-12T00:52:45;6.47;;;2.77;;
16979;SDS011;42288;52.182;21.156;2022-09-12T00:55:52;5.33;;;2.90;;
16979;SDS011;42288;52.182;21.156;2022-09-12T00:58:35;6.70;;;2.93;;
16979;SDS011;42288;52.182;21.156;2022-09-12T01:01:05;7.20;;;3.03;;
16979;SDS011;42288;52.182;21.156;2022-09-12T01:03:31;11.80;;;3.07;;
16979;SDS011;42288;52.182;21.156;2022-09-12T01:05:58;8.67;;;3.10;;
16979;SDS011;42288;52.182;21.156;2022-09-12T01:08:31;8.87;;;2.90;;
16979;SDS011;42288;52.182;21.156;2022-09-12T01:10:57;8.63;;;3.07;;
16979;SDS011;42288;52.182;21.156;2022-09-12T01:13:23;8.70;;;3.00;;
16979;SDS011;42288;52.182;21.156;2022-09-12T01:15:49;8.57;;;3.10;;
16979;SDS011;42288;52.182;21.156;2022-09-12T01:18:21;7.53;;;3.20;;
16979;SDS011;42288;52.182;21.156;2022-09-12T01:26:40;6.27;;;2.80;;
16979;SDS011;42288;52.182;21.156;2022-09-12T01:29:32;7.10;;;3.37;;
16979;SDS011;42288;52.182;21.156;2022-09-12T01:37:51;6.03;;;3.57;;
16979;SDS011;42288;52.182;21.156;2022-09-12T01:40:41;5.80;;;3.57;;
16979;SDS011;42288;52.182;21.156;2022-09-12T01:43:18;5.90;;;3.00;;
16979;SDS011;42288;52.182;21.156;2022-09-12T01:45:55;7.07;;;3.03;;
16979;SDS011;42288;52.182;21.156;2022-09-12T01:48:29;5.07;;;2.70;;
16979;SDS011;42288;52.182;21.156;2022-09-12T01:53:53;8.20;;;3.03;;
16979;SDS011;42288;52.182;21.156;2022-09-12T01:56:28;6.13;;;3.10;;
16979;SDS011;42288;52.182;21.156;2022-09-12T02:01:45;7.50;;;2.93;;
16979;SDS011;42288;52.182;21.156;2022-09-12T02:04:19;6.53;;;2.77;;
16979;SDS011;42288;52.182;21.156;2022-09-12T02:06:49;5.17;;;2.80;;
16979;SDS011;42288;52.182;21.156;2022-09-12T02:09:26;6.87;;;3.07;;
16979;SDS011;42288;52.182;21.156;2022-09-12T02:11:58;6.13;;;3.00;;
16979;SDS011;42288;52.182;21.156;2022-09-12T02:14:30;8.27;;;3.10;;
16979;SDS011;42288;52.182;21.156;2022-09-12T02:17:05;5.47;;;2.97;;
16979;SDS011;42288;52.182;21.156;2022-09-12T02:19:54;7.83;;;3.33;;
16979;SDS011;42288;52.182;21.156;2022-09-12T02:22:26;6.70;;;3.07;;
16979;SDS011;42288;52.182;21.156;2022-09-12T02:24:56;9.47;;;3.53;;
16979;SDS011;42288;52.182;21.156;2022-09-12T02:27:26;7.50;;;3.00;;
16979;SDS011;42288;52.182;21.156;2022-09-12T02:29:54;5.80;;;3.63;;
16979;SDS011;42288;52.182;21.156;2022-09-12T02:32:23;6.20;;;3.07;;
16979;SDS011;42288;52.182;21.156;2022-09-12T02:34:58;8.50;;;3.53;;
16979;SDS011;42288;52.182;21.156;2022-09-12T02:39:58;5.17;;;2.93;;
16979;SDS011;42288;52.182;21.156;2022-09-12T02:42:24;7.70;;;3.23;;
16979;SDS011;42288;52.182;21.156;2022-09-12T02:44:50;8.10;;;3.40;;
16979;SDS011;42288;52.182;21.156;2022-09-12T02:47:20;5.33;;;3.13;;
16979;SDS011;42288;52.182;21.156;2022-09-12T02:49:50;7.00;;;3.43;;
16979;SDS011;42288;52.182;21.156;2022-09-12T02:52:17;10.47;;;3.40;;
16979;SDS011;42288;52.182;21.156;2022-09-12T02:54:43;5.90;;;2.90;;
16979;SDS011;42288;52.182;21.156;2022-09-12T02:57:19;11.20;;;3.57;;
16979;SDS011;42288;52.182;21.156;2022-09-12T02:59:45;5.83;;;2.90;;
16979;SDS011;42288;52.182;21.156;2022-09-12T03:02:30;9.00;;;3.37;;
16979;SDS011;42288;52.182;21.156;2022-09-12T03:05:17;7.77;;;3.10;;
16979;SDS011;42288;52.182;21.156;2022-09-12T03:08:05;6.50;;;3.03;;
16979;SDS011;42288;52.182;21.156;2022-09-12T03:10:57;6.30;;;3.07;;
16979;SDS011;42288;52.182;21.156;2022-09-12T03:16:03;6.00;;;3.30;;
16979;SDS011;42288;52.182;21.156;2022-09-12T03:18:44;6.93;;;2.93;;
16979;SDS011;42288;52.182;21.156;2022-09-12T03:21:28;7.03;;;2.70;;
16979;SDS011;42288;52.182;21.156;2022-09-12T03:24:08;8.20;;;3.10;;
16979;SDS011;42288;52.182;21.156;2022-09-12T03:26:40;6.13;;;2.90;;
16979;SDS011;42288;52.182;21.156;2022-09-12T03:29:12;7.40;;;2.70;;
16979;SDS011;42288;52.182;21.156;2022-09-12T03:31:46;5.63;;;2.90;;
16979;SDS011;42288;52.182;21.156;2022-09-12T03:34:17;7.63;;;2.93;;
16979;SDS011;42288;52.182;21.156;2022-09-12T03:36:44;5.00;;;2.53;;
16979;SDS011;42288;52.182;21.156;2022-09-12T03:39:10;6.77;;;3.27;;
16979;SDS011;42288;52.182;21.156;2022-09-12T03:41:35;4.83;;;2.40;;
16979;SDS011;42288;52.182;21.156;2022-09-12T03:44:01;6.63;;;2.43;;
16979;SDS011;42288;52.182;21.156;2022-09-12T03:46:27;6.13;;;2.63;;
16979;SDS011;42288;52.182;21.156;2022-09-12T03:48:52;5.30;;;2.87;;
16979;SDS011;42288;52.182;21.156;2022-09-12T03:51:18;6.73;;;2.77;;
16979;SDS011;42288;52.182;21.156;2022-09-12T03:53:43;4.40;;;2.77;;
16979;SDS011;42288;52.182;21.156;2022-09-12T03:56:09;9.00;;;3.03;;
16979;SDS011;42288;52.182;21.156;2022-09-12T03:58:36;7.23;;;2.90;;
16979;SDS011;42288;52.182;21.156;2022-09-12T04:01:06;5.00;;;3.10;;
16979;SDS011;42288;52.182;21.156;2022-09-12T04:03:38;9.50;;;3.20;;
16979;SDS011;42288;52.182;21.156;2022-09-12T04:06:04;9.17;;;3.40;;
16979;SDS011;42288;52.182;21.156;2022-09-12T04:08:30;6.00;;;3.20;;
16979;SDS011;42288;52.182;21.156;2022-09-12T04:11:03;6.73;;;3.70;;
16979;SDS011;42288;52.182;21.156;2022-09-12T04:13:30;10.30;;;3.63;;
16979;SDS011;42288;52.182;21.156;2022-09-12T04:15:58;8.40;;;3.57;;
16979;SDS011;42288;52.182;21.156;2022-09-12T04:18:24;6.03;;;3.47;;
16979;SDS011;42288;52.182;21.156;2022-09-12T04:20:50;7.93;;;3.80;;
16979;SDS011;42288;52.182;21.156;2022-09-12T04:23:16;8.23;;;3.93;;
16979;SDS011;42288;52.182;21.156;2022-09-12T04:25:41;8.27;;;4.07;;
16979;SDS011;42288;52.182;21.156;2022-09-12T04:28:07;9.90;;;3.67;;
16979;SDS011;42288;52.182;21.156;2022-09-12T04:30:33;8.43;;;3.93;;
16979;SDS011;42288;52.182;21.156;2022-09-12T04:32:59;6.37;;;3.90;;
16979;SDS011;42288;52.182;21.156;2022-09-12T04:35:24;10.80;;;4.60;;
16979;SDS011;42288;52.182;21.156;2022-09-12T04:37:50;11.77;;;4.27;;
16979;SDS011;42288;52.182;21.156;2022-09-12T04:40:16;10.87;;;4.70;;
16979;SDS011;42288;52.182;21.156;2022-09-12T04:42:42;7.93;;;4.10;;
16979;SDS011;42288;52.182;21.156;2022-09-12T04:45:08;10.53;;;4.50;;
16979;SDS011;42288;52.182;21.156;2022-09-12T04:47:34;9.53;;;4.00;;
16979;SDS011;42288;52.182;21.156;2022-09-12T04:50:00;7.67;;;4.30;;
16979;SDS011;42288;52.182;21.156;2022-09-12T04:52:25;9.50;;;3.93;;
16979;SDS011;42288;52.182;21.156;2022-09-12T04:54:51;5.90;;;4.13;;
16979;SDS011;42288;52.182;21.156;2022-09-12T04:57:17;14.30;;;4.63;;
16979;SDS011;42288;52.182;21.156;2022-09-12T04:59:42;11.23;;;4.53;;
16979;SDS011;42288;52.182;21.156;2022-09-12T05:02:08;8.53;;;4.33;;
16979;SDS011;42288;52.182;21.156;2022-09-12T05:04:33;9.97;;;4.73;;
16979;SDS011;42288;52.182;21.156;2022-09-12T05:06:59;9.73;;;5.17;;
16979;SDS011;42288;52.182;21.156;2022-09-12T05:09:25;11.40;;;5.03;;
16979;SDS011;42288;52.182;21.156;2022-09-12T05:11:51;8.87;;;5.40;;
16979;SDS011;42288;52.182;21.156;2022-09-12T05:14:16;11.20;;;5.33;;
16979;SDS011;42288;52.182;21.156;2022-09-12T05:16:42;9.10;;;5.23;;
16979;SDS011;42288;52.182;21.156;2022-09-12T05:19:09;9.53;;;5.60;;
16979;SDS011;42288;52.182;21.156;2022-09-12T05:21:36;8.70;;;5.03;;
16979;SDS011;42288;52.182;21.156;2022-09-12T05:24:01;10.97;;;5.67;;
16979;SDS011;42288;52.182;21.156;2022-09-12T05:26:29;11.07;;;6.43;;
16979;SDS011;42288;52.182;21.156;2022-09-12T05:28:54;8.27;;;6.10;;
16979;SDS011;42288;52.182;21.156;2022-09-12T05:31:21;10.70;;;5.60;;
16979;SDS011;42288;52.182;21.156;2022-09-12T05:33:49;12.03;;;6.47;;
16979;SDS011;42288;52.182;21.156;2022-09-12T05:36:17;11.50;;;6.20;;
16979;SDS011;42288;52.182;21.156;2022-09-12T05:38:47;19.57;;;6.77;;
16979;SDS011;42288;52.182;21.156;2022-09-12T05:41:17;14.30;;;6.30;;
16979;SDS011;42288;52.182;21.156;2022-09-12T05:43:45;12.63;;;6.10;;
16979;SDS011;42288;52.182;21.156;2022-09-12T05:46:15;12.90;;;6.30;;
16979;SDS011;42288;52.182;21.156;2022-09-12T05:48:43;14.37;;;7.27;;
16979;SDS011;42288;52.182;21.156;2022-09-12T05:51:11;16.23;;;6.37;;
16979;SDS011;42288;52.182;21.156;2022-09-12T05:53:39;15.17;;;6.37;;
16979;SDS011;42288;52.182;21.156;2022-09-12T05:56:07;11.43;;;6.03;;
16979;SDS011;42288;52.182;21.156;2022-09-12T05:58:35;13.83;;;6.10;;
16979;SDS011;42288;52.182;21.156;2022-09-12T06:01:06;13.87;;;5.50;;
16979;SDS011;42288;52.182;21.156;2022-09-12T06:03:43;12.70;;;6.20;;
16979;SDS011;42288;52.182;21.156;2022-09-12T06:06:11;7.70;;;5.30;;
16979;SDS011;42288;52.182;21.156;2022-09-12T06:08:38;11.00;;;5.97;;
16979;SDS011;42288;52.182;21.156;2022-09-12T06:11:06;16.20;;;6.27;;
16979;SDS011;42288;52.182;21.156;2022-09-12T06:13:34;9.67;;;5.53;;
16979;SDS011;42288;52.182;21.156;2022-09-12T06:18:37;11.57;;;5.47;;
16979;SDS011;42288;52.182;21.156;2022-09-12T06:21:04;10.80;;;5.90;;
16979;SDS011;42288;52.182;21.156;2022-09-12T06:23:31;14.33;;;6.60;;
16979;SDS011;42288;52.182;21.156;2022-09-12T06:25:57;10.27;;;5.37;;
16979;SDS011;42288;52.182;21.156;2022-09-12T06:28:23;10.67;;;6.30;;
16979;SDS011;42288;52.182;21.156;2022-09-12T06:30:49;8.93;;;5.67;;
16979;SDS011;42288;52.182;21.156;2022-09-12T06:33:14;11.30;;;5.60;;
16979;SDS011;42288;52.182;21.156;2022-09-12T06:35:40;7.83;;;4.83;;
16979;SDS011;42288;52.182;21.156;2022-09-12T06:38:06;8.00;;;5.13;;
16979;SDS011;42288;52.182;21.156;2022-09-12T06:40:31;11.30;;;5.50;;
16979;SDS011;42288;52.182;21.156;2022-09-12T06:42:57;9.50;;;4.63;;
16979;SDS011;42288;52.182;21.156;2022-09-12T06:45:23;9.87;;;4.60;;
16979;SDS011;42288;52.182;21.156;2022-09-12T06:47:50;9.63;;;4.77;;
16979;SDS011;42288;52.182;21.156;2022-09-12T06:50:15;8.07;;;4.27;;
16979;SDS011;42288;52.182;21.156;2022-09-12T06:52:41;8.43;;;4.30;;
16979;SDS011;42288;52.182;21.156;2022-09-12T06:55:07;6.10;;;4.07;;
16979;SDS011;42288;52.182;21.156;2022-09-12T06:57:33;10.37;;;4.50;;
16979;SDS011;42288;52.182;21.156;2022-09-12T07:00:02;8.93;;;4.70;;
16979;SDS011;42288;52.182;21.156;2022-09-12T07:02:29;7.83;;;4.03;;
16979;SDS011;42288;52.182;21.156;2022-09-12T07:04:55;6.27;;;4.17;;
16979;SDS011;42288;52.182;21.156;2022-09-12T07:07:20;7.13;;;4.20;;
16979;SDS011;42288;52.182;21.156;2022-09-12T07:09:46;7.37;;;3.90;;
16979;SDS011;42288;52.182;21.156;2022-09-12T07:12:13;7.97;;;4.30;;
16979;SDS011;42288;52.182;21.156;2022-09-12T07:14:38;8.83;;;4.57;;
16979;SDS011;42288;52.182;21.156;2022-09-12T07:17:04;10.43;;;4.50;;
16979;SDS011;42288;52.182;21.156;2022-09-12T07:19:29;5.60;;;3.80;;
16979;SDS011;42288;52.182;21.156;2022-09-12T07:21:55;8.90;;;4.27;;
16979;SDS011;42288;52.182;21.156;2022-09-12T07:24:20;8.97;;;4.63;;
16979;SDS011;42288;52.182;21.156;2022-09-12T07:26:46;8.17;;;3.77;;
16979;SDS011;42288;52.182;21.156;2022-09-12T07:29:13;4.73;;;3.67;;
16979;SDS011;42288;52.182;21.156;2022-09-12T07:31:40;9.27;;;4.73;;
16979;SDS011;42288;52.182;21.156;2022-09-12T07:34:05;12.53;;;5.00;;
16979;SDS011;42288;52.182;21.156;2022-09-12T07:36:31;7.17;;;4.10;;
16979;SDS011;42288;52.182;21.156;2022-09-12T07:38:57;8.10;;;4.20;;
16979;SDS011;42288;52.182;21.156;2022-09-12T07:41:26;6.83;;;4.33;;
16979;SDS011;42288;52.182;21.156;2022-09-12T07:43:54;8.40;;;4.07;;
16979;SDS011;42288;52.182;21.156;2022-09-12T07:46:21;5.80;;;3.97;;
16979;SDS011;42288;52.182;21.156;2022-09-12T07:48:48;8.10;;;4.30;;
16979;SDS011;42288;52.182;21.156;2022-09-12T07:51:16;8.50;;;4.50;;
16979;SDS011;42288;52.182;21.156;2022-09-12T07:53:42;10.50;;;4.37;;
16979;SDS011;42288;52.182;21.156;2022-09-12T07:56:08;13.17;;;4.13;;
16979;SDS011;42288;52.182;21.156;2022-09-12T07:58:35;8.07;;;4.30;;
16979;SDS011;42288;52.182;21.156;2022-09-12T08:01:09;10.50;;;4.43;;
16979;SDS011;42288;52.182;21.156;2022-09-12T08:03:37;9.83;;;4.30;;
16979;SDS011;42288;52.182;21.156;2022-09-12T08:06:13;8.93;;;4.23;;
16979;SDS011;42288;52.182;21.156;2022-09-12T08:08:48;7.27;;;4.23;;
16979;SDS011;42288;52.182;21.156;2022-09-12T08:11:15;6.27;;;4.13;;
16979;SDS011;42288;52.182;21.156;2022-09-12T08:13:42;9.73;;;4.70;;
16979;SDS011;42288;52.182;21.156;2022-09-12T08:16:13;9.33;;;4.50;;
16979;SDS011;42288;52.182;21.156;2022-09-12T08:18:40;8.67;;;4.30;;
16979;SDS011;42288;52.182;21.156;2022-09-12T08:21:25;8.93;;;4.40;;
16979;SDS011;42288;52.182;21.156;2022-09-12T08:23:56;15.10;;;8.53;;
16979;SDS011;42288;52.182;21.156;2022-09-12T08:26:24;7.60;;;4.40;;
16979;SDS011;42288;52.182;21.156;2022-09-12T08:28:50;8.73;;;5.00;;
16979;SDS011;42288;52.182;21.156;2022-09-12T08:31:17;11.83;;;5.50;;
16979;SDS011;42288;52.182;21.156;2022-09-12T08:33:44;9.33;;;5.27;;
16979;SDS011;42288;52.182;21.156;2022-09-12T08:36:14;6.70;;;4.20;;
16979;SDS011;42288;52.182;21.156;2022-09-12T08:38:42;8.77;;;4.40;;
16979;SDS011;42288;52.182;21.156;2022-09-12T08:51:58;8.17;;;4.23;;
16979;SDS011;42288;52.182;21.156;2022-09-12T08:54:47;7.77;;;4.33;;
16979;SDS011;42288;52.182;21.156;2022-09-12T08:57:14;9.30;;;5.03;;
16979;SDS011;42288;52.182;21.156;2022-09-12T08:59:41;11.17;;;4.57;;
16979;SDS011;42288;52.182;21.156;2022-09-12T09:02:18;6.40;;;3.77;;
16979;SDS011;42288;52.182;21.156;2022-09-12T09:05:00;8.37;;;4.47;;
16979;SDS011;42288;52.182;21.156;2022-09-12T09:07:52;10.00;;;4.37;;
16979;SDS011;42288;52.182;21.156;2022-09-12T09:10:46;6.83;;;3.97;;
16979;SDS011;42288;52.182;21.156;2022-09-12T09:19:02;6.37;;;3.87;;
16979;SDS011;42288;52.182;21.156;2022-09-12T09:22:15;5.73;;;3.57;;
16979;SDS011;42288;52.182;21.156;2022-09-12T09:24:24;9.50;;;4.50;;
16979;SDS011;42288;52.182;21.156;2022-09-12T09:26:55;6.70;;;4.40;;
16979;SDS011;42288;52.182;21.156;2022-09-12T09:29:29;8.10;;;3.87;;
16979;SDS011;42288;52.182;21.156;2022-09-12T09:32:02;9.13;;;3.33;;
16979;SDS011;42288;52.182;21.156;2022-09-12T09:34:34;9.27;;;3.83;;
16979;SDS011;42288;52.182;21.156;2022-09-12T09:37:17;4.83;;;3.43;;
16979;SDS011;42288;52.182;21.156;2022-09-12T09:42:51;6.80;;;3.50;;
16979;SDS011;42288;52.182;21.156;2022-09-12T09:45:26;9.10;;;3.83;;
16979;SDS011;42288;52.182;21.156;2022-09-12T09:47:56;6.57;;;4.10;;
16979;SDS011;42288;52.182;21.156;2022-09-12T09:50:25;9.33;;;3.90;;
16979;SDS011;42288;52.182;21.156;2022-09-12T09:52:51;7.37;;;3.57;;
16979;SDS011;42288;52.182;21.156;2022-09-12T09:55:21;8.73;;;3.63;;
16979;SDS011;42288;52.182;21.156;2022-09-12T09:57:52;8.03;;;3.60;;
16979;SDS011;42288;52.182;21.156;2022-09-12T10:00:19;12.83;;;3.87;;
16979;SDS011;42288;52.182;21.156;2022-09-12T10:05:35;7.87;;;3.30;;
16979;SDS011;42288;52.182;21.156;2022-09-12T10:08:08;8.93;;;3.30;;
16979;SDS011;42288;52.182;21.156;2022-09-12T10:10:35;6.47;;;3.73;;
16979;SDS011;42288;52.182;21.156;2022-09-12T10:13:08;8.37;;;3.90;;
16979;SDS011;42288;52.182;21.156;2022-09-12T10:15:54;9.00;;;3.43;;
16979;SDS011;42288;52.182;21.156;2022-09-12T10:18:33;12.90;;;4.47;;
16979;SDS011;42288;52.182;21.156;2022-09-12T10:21:47;6.17;;;3.70;;
16979;SDS011;42288;52.182;21.156;2022-09-12T10:26:29;8.63;;;4.27;;
16979;SDS011;42288;52.182;21.156;2022-09-12T10:29:02;9.93;;;5.20;;
16979;SDS011;42288;52.182;21.156;2022-09-12T10:31:56;7.00;;;3.60;;
16979;SDS011;42288;52.182;21.156;2022-09-12T10:34:24;8.40;;;3.47;;
16979;SDS011;42288;52.182;21.156;2022-09-12T10:36:58;7.67;;;3.77;;
16979;SDS011;42288;52.182;21.156;2022-09-12T10:39:27;5.43;;;3.30;;
16979;SDS011;42288;52.182;21.156;2022-09-12T10:41:53;8.27;;;3.93;;
16979;SDS011;42288;52.182;21.156;2022-09-12T10:44:28;6.47;;;3.63;;
16979;SDS011;42288;52.182;21.156;2022-09-12T10:46:56;8.27;;;3.17;;
16979;SDS011;42288;52.182;21.156;2022-09-12T10:51:48;8.47;;;3.90;;
16979;SDS011;42288;52.182;21.156;2022-09-12T10:54:16;7.97;;;3.30;;
16979;SDS011;42288;52.182;21.156;2022-09-12T10:56:51;5.63;;;3.47;;
16979;SDS011;42288;52.182;21.156;2022-09-12T11:04:58;5.90;;;3.33;;
16979;SDS011;42288;52.182;21.156;2022-09-12T11:07:39;5.23;;;3.30;;
16979;SDS011;42288;52.182;21.156;2022-09-12T11:13:16;5.27;;;2.70;;
16979;SDS011;42288;52.182;21.156;2022-09-12T11:21:57;5.93;;;3.47;;
16979;SDS011;42288;52.182;21.156;2022-09-12T11:37:44;8.10;;;4.43;;
16979;SDS011;42288;52.182;21.156;2022-09-12T11:40:25;7.70;;;3.77;;
16979;SDS011;42288;52.182;21.156;2022-09-12T11:42:56;6.77;;;3.33;;
16979;SDS011;42288;52.182;21.156;2022-09-12T11:45:40;6.43;;;3.63;;
16979;SDS011;42288;52.182;21.156;2022-09-12T11:48:13;7.80;;;3.67;;
16979;SDS011;42288;52.182;21.156;2022-09-12T11:50:49;7.30;;;3.67;;
16979;SDS011;42288;52.182;21.156;2022-09-12T11:53:21;7.77;;;3.30;;
16979;SDS011;42288;52.182;21.156;2022-09-12T11:55:54;8.33;;;4.10;;
16979;SDS011;42288;52.182;21.156;2022-09-12T11:58:37;10.83;;;4.00;;
16979;SDS011;42288;52.182;21.156;2022-09-12T12:01:14;8.30;;;3.50;;
16979;SDS011;42288;52.182;21.156;2022-09-12T12:03:45;8.47;;;3.67;;
16979;SDS011;42288;52.182;21.156;2022-09-12T12:06:29;7.23;;;4.10;;
16979;SDS011;42288;52.182;21.156;2022-09-12T12:08:57;8.27;;;4.07;;
16979;SDS011;42288;52.182;21.156;2022-09-12T12:14:03;6.27;;;3.37;;
16979;SDS011;42288;52.182;21.156;2022-09-12T12:16:37;4.83;;;3.40;;
16979;SDS011;42288;52.182;21.156;2022-09-12T12:19:07;11.50;;;4.10;;
16979;SDS011;42288;52.182;21.156;2022-09-12T12:21:40;5.67;;;3.10;;
16979;SDS011;42288;52.182;21.156;2022-09-12T12:29:11;6.90;;;2.97;;
16979;SDS011;42288;52.182;21.156;2022-09-12T12:34:35;5.37;;;3.23;;
16979;SDS011;42288;52.182;21.156;2022-09-12T12:50:07;5.73;;;3.17;;
16979;SDS011;42288;52.182;21.156;2022-09-12T12:52:51;6.27;;;3.43;;
16979;SDS011;42288;52.182;21.156;2022-09-12T12:55:30;8.70;;;3.23;;
16979;SDS011;42288;52.182;21.156;2022-09-12T12:58:01;7.70;;;3.50;;
16979;SDS011;42288;52.182;21.156;2022-09-12T13:00:30;6.53;;;3.53;;
16979;SDS011;42288;52.182;21.156;2022-09-12T13:03:22;8.47;;;3.50;;
16979;SDS011;42288;52.182;21.156;2022-09-12T13:05:55;4.90;;;3.13;;
16979;SDS011;42288;52.182;21.156;2022-09-12T13:08:31;4.63;;;3.03;;
16979;SDS011;42288;52.182;21.156;2022-09-12T13:11:00;7.17;;;2.83;;
16979;SDS011;42288;52.182;21.156;2022-09-12T13:13:41;6.73;;;2.87;;
16979;SDS011;42288;52.182;21.156;2022-09-12T13:16:57;7.27;;;3.03;;
16979;SDS011;42288;52.182;21.156;2022-09-12T13:19:20;8.23;;;3.50;;
16979;SDS011;42288;52.182;21.156;2022-09-12T13:22:01;6.83;;;3.30;;
16979;SDS011;42288;52.182;21.156;2022-09-12T13:24:31;5.87;;;2.90;;
16979;SDS011;42288;52.182;21.156;2022-09-12T13:26:58;5.53;;;2.93;;
16979;SDS011;42288;52.182;21.156;2022-09-12T13:29:24;5.97;;;3.43;;
16979;SDS011;42288;52.182;21.156;2022-09-12T13:31:52;6.83;;;3.10;;
16979;SDS011;42288;52.182;21.156;2022-09-12T13:40:11;5.53;;;3.20;;
16979;SDS011;42288;52.182;21.156;2022-09-12T13:43:03;4.47;;;3.30;;
16979;SDS011;42288;52.182;21.156;2022-09-12T13:45:52;6.03;;;3.20;;
16979;SDS011;42288;52.182;21.156;2022-09-12T13:48:22;6.33;;;3.30;;
16979;SDS011;42288;52.182;21.156;2022-09-12T13:53:20;4.57;;;3.20;;
16979;SDS011;42288;52.182;21.156;2022-09-12T13:55:54;5.53;;;3.43;;
16979;SDS011;42288;52.182;21.156;2022-09-12T13:58:24;6.13;;;3.10;;
16979;SDS011;42288;52.182;21.156;2022-09-12T14:00:59;5.30;;;3.20;;
16979;SDS011;42288;52.182;21.156;2022-09-12T14:03:27;5.13;;;3.17;;
16979;SDS011;42288;52.182;21.156;2022-09-12T14:06:14;8.33;;;3.00;;
16979;SDS011;42288;52.182;21.156;2022-09-12T14:08:40;4.77;;;3.20;;
16979;SDS011;42288;52.182;21.156;2022-09-12T14:11:08;5.33;;;3.53;;
16979;SDS011;42288;52.182;21.156;2022-09-12T14:13:35;4.37;;;3.10;;
16979;SDS011;42288;52.182;21.156;2022-09-12T14:16:02;4.47;;;3.23;;
16979;SDS011;42288;52.182;21.156;2022-09-12T14:18:32;4.40;;;3.30;;
16979;SDS011;42288;52.182;21.156;2022-09-12T14:21:04;7.07;;;3.50;;
16979;SDS011;42288;52.182;21.156;2022-09-12T14:23:44;7.40;;;3.40;;
16979;SDS011;42288;52.182;21.156;2022-09-12T14:26:12;5.90;;;3.23;;
16979;SDS011;42288;52.182;21.156;2022-09-12T14:28:41;5.13;;;3.20;;
16979;SDS011;42288;52.182;21.156;2022-09-12T14:38:56;6.63;;;3.37;;
16979;SDS011;42288;52.182;21.156;2022-09-12T14:41:28;6.17;;;3.30;;
16979;SDS011;42288;52.182;21.156;2022-09-12T14:43:58;4.50;;;3.37;;
16979;SDS011;42288;52.182;21.156;2022-09-12T14:46:36;6.07;;;3.57;;
16979;SDS011;42288;52.182;21.156;2022-09-12T14:49:17;6.27;;;3.80;;
16979;SDS011;42288;52.182;21.156;2022-09-12T14:56:58;4.33;;;3.40;;
16979;SDS011;42288;52.182;21.156;2022-09-12T14:59:36;5.17;;;3.30;;
16979;SDS011;42288;52.182;21.156;2022-09-12T15:04:41;5.27;;;3.53;;
16979;SDS011;42288;52.182;21.156;2022-09-12T15:07:30;8.40;;;4.13;;
16979;SDS011;42288;52.182;21.156;2022-09-12T15:10:01;5.17;;;3.63;;
16979;SDS011;42288;52.182;21.156;2022-09-12T15:12:29;4.23;;;3.77;;
16979;SDS011;42288;52.182;21.156;2022-09-12T15:15:37;6.13;;;3.67;;
16979;SDS011;42288;52.182;21.156;2022-09-12T15:17:44;4.27;;;3.60;;
16979;SDS011;42288;52.182;21.156;2022-09-12T15:20:10;4.43;;;3.40;;
16979;SDS011;42288;52.182;21.156;2022-09-12T15:22:37;11.73;;;4.23;;
16979;SDS011;42288;52.182;21.156;2022-09-12T15:25:03;7.60;;;3.53;;
16979;SDS011;42288;52.182;21.156;2022-09-12T15:27:30;7.03;;;3.77;;
16979;SDS011;42288;52.182;21.156;2022-09-12T15:29:56;8.17;;;4.00;;
16979;SDS011;42288;52.182;21.156;2022-09-12T15:32:22;6.13;;;4.10;;
16979;SDS011;42288;52.182;21.156;2022-09-12T15:34:52;5.90;;;3.97;;
16979;SDS011;42288;52.182;21.156;2022-09-12T15:37:18;9.33;;;4.00;;
16979;SDS011;42288;52.182;21.156;2022-09-12T15:39:46;5.57;;;4.03;;
16979;SDS011;42288;52.182;21.156;2022-09-12T15:42:12;7.47;;;3.43;;
16979;SDS011;42288;52.182;21.156;2022-09-12T15:44:38;5.43;;;3.73;;
16979;SDS011;42288;52.182;21.156;2022-09-12T15:47:05;8.33;;;3.80;;
16979;SDS011;42288;52.182;21.156;2022-09-12T15:49:30;11.17;;;3.80;;
16979;SDS011;42288;52.182;21.156;2022-09-12T15:51:56;6.93;;;3.40;;
16979;SDS011;42288;52.182;21.156;2022-09-12T15:54:23;6.10;;;3.90;;
16979;SDS011;42288;52.182;21.156;2022-09-12T15:56:48;4.67;;;3.57;;
16979;SDS011;42288;52.182;21.156;2022-09-12T15:59:14;7.03;;;3.60;;
16979;SDS011;42288;52.182;21.156;2022-09-12T16:01:39;6.70;;;4.17;;
16979;SDS011;42288;52.182;21.156;2022-09-12T16:04:16;6.00;;;3.87;;
16979;SDS011;42288;52.182;21.156;2022-09-12T16:06:50;9.27;;;4.07;;
16979;SDS011;42288;52.182;21.156;2022-09-12T16:09:17;7.13;;;4.00;;
16979;SDS011;42288;52.182;21.156;2022-09-12T16:11:42;6.70;;;4.60;;
16979;SDS011;42288;52.182;21.156;2022-09-12T16:14:09;7.33;;;4.50;;
16979;SDS011;42288;52.182;21.156;2022-09-12T16:16:37;8.20;;;4.67;;
16979;SDS011;42288;52.182;21.156;2022-09-12T16:19:03;9.60;;;4.93;;
16979;SDS011;42288;52.182;21.156;2022-09-12T16:21:28;8.53;;;5.07;;
16979;SDS011;42288;52.182;21.156;2022-09-12T16:23:54;7.77;;;4.70;;
16979;SDS011;42288;52.182;21.156;2022-09-12T16:26:20;5.23;;;4.20;;
16979;SDS011;42288;52.182;21.156;2022-09-12T16:28:45;6.53;;;4.30;;
16979;SDS011;42288;52.182;21.156;2022-09-12T16:31:11;7.40;;;3.70;;
16979;SDS011;42288;52.182;21.156;2022-09-12T16:33:38;6.80;;;4.33;;
16979;SDS011;42288;52.182;21.156;2022-09-12T16:36:08;5.33;;;4.13;;
16979;SDS011;42288;52.182;21.156;2022-09-12T16:41:30;7.80;;;4.20;;
16979;SDS011;42288;52.182;21.156;2022-09-12T16:43:56;6.23;;;4.10;;
16979;SDS011;42288;52.182;21.156;2022-09-12T16:46:25;6.83;;;4.10;;
16979;SDS011;42288;52.182;21.156;2022-09-12T16:48:54;6.67;;;4.50;;
16979;SDS011;42288;52.182;21.156;2022-09-12T16:51:23;4.70;;;3.80;;
16979;SDS011;42288;52.182;21.156;2022-09-12T16:53:50;7.17;;;4.33;;
16979;SDS011;42288;52.182;21.156;2022-09-12T16:56:16;7.03;;;4.13;;
16979;SDS011;42288;52.182;21.156;2022-09-12T16:58:41;6.10;;;4.17;;
16979;SDS011;42288;52.182;21.156;2022-09-12T17:01:11;9.80;;;4.30;;
16979;SDS011;42288;52.182;21.156;2022-09-12T17:03:41;7.87;;;4.77;;
16979;SDS011;42288;52.182;21.156;2022-09-12T17:06:11;9.57;;;5.00;;
16979;SDS011;42288;52.182;21.156;2022-09-12T17:08:42;14.70;;;6.57;;